createdAt,value
2023-05-10T00:00:36.951Z,2.95
2023-05-10T00:03:40.301Z,4.00
2023-05-10T00:06:43.710Z,3.30
2023-05-10T00:09:47.120Z,3.88
2023-05-10T00:12:50.240Z,3.47
2023-05-10T00:15:53.133Z,3.00
2023-05-10T00:18:56.488Z,3.17
2023-05-10T00:22:02.585Z,3.50
2023-05-10T00:25:06.510Z,3.67
2023-05-10T00:28:09.823Z,3.20
2023-05-10T00:31:15.797Z,3.80
2023-05-10T00:34:18.783Z,3.65
2023-05-10T00:37:21.921Z,3.50
2023-05-10T00:40:26.003Z,3.00
2023-05-10T00:43:33.744Z,3.47
2023-05-10T00:46:38.537Z,3.65
2023-05-10T00:49:42.877Z,3.28
2023-05-10T00:52:45.990Z,3.65
2023-05-10T00:55:49.465Z,2.95
2023-05-10T00:58:53.017Z,3.30
2023-05-10T01:01:56.218Z,2.85
2023-05-10T01:05:00.303Z,3.67
2023-05-10T01:08:03.981Z,2.95
2023-05-10T01:11:08.183Z,3.42
2023-05-10T01:14:11.863Z,2.83
2023-05-10T01:17:15.682Z,3.58
2023-05-10T01:20:19.472Z,3.00
2023-05-10T01:23:38.257Z,2.50
2023-05-10T01:26:41.491Z,3.15
2023-05-10T01:30:14.929Z,2.67
2023-05-10T01:33:31.460Z,3.05
2023-05-10T01:36:59.819Z,2.53
2023-05-10T01:40:27.259Z,3.13
2023-05-10T01:43:38.337Z,2.45
2023-05-10T01:46:42.032Z,2.40
2023-05-10T01:49:50.809Z,2.55
2023-05-10T01:52:59.994Z,3.15
2023-05-10T01:56:03.994Z,3.03
2023-05-10T01:59:12.670Z,3.22
2023-05-10T02:02:17.947Z,2.83
2023-05-10T02:05:22.851Z,2.80
2023-05-10T02:08:26.735Z,3.08
2023-05-10T02:11:30.902Z,3.13
2023-05-10T02:14:37.458Z,3.58
2023-05-10T02:17:43.319Z,2.97
2023-05-10T02:20:47.931Z,2.78
2023-05-10T02:23:53.709Z,3.42
2023-05-10T02:26:58.335Z,3.08
2023-05-10T02:30:02.534Z,3.90
2023-05-10T02:33:07.478Z,3.40
2023-05-10T02:36:11.724Z,2.90
2023-05-10T02:39:16.775Z,4.00
2023-05-10T02:42:26.924Z,3.15
2023-05-10T02:45:32.417Z,3.78
2023-05-10T02:48:35.524Z,3.60
2023-05-10T02:51:51.189Z,3.50
2023-05-10T02:54:59.578Z,2.58
2023-05-10T02:58:03.816Z,3.17
2023-05-10T03:01:08.767Z,3.83
2023-05-10T03:04:13.345Z,3.20
2023-05-10T03:07:18.026Z,3.80
2023-05-10T03:10:25.591Z,3.50
2023-05-10T03:13:36.525Z,3.22
2023-05-10T03:16:58.431Z,4.13
2023-05-10T03:20:08.598Z,3.53
2023-05-10T03:23:31.409Z,3.60
2023-05-10T03:26:36.188Z,3.28
2023-05-10T03:29:47.692Z,4.03
2023-05-10T03:32:51.787Z,3.35
2023-05-10T03:35:55.376Z,3.47
2023-05-10T03:38:58.501Z,4.40
2023-05-10T03:42:01.914Z,3.97
2023-05-10T03:45:08.326Z,4.40
2023-05-10T03:48:11.683Z,4.05
2023-05-10T03:51:14.823Z,4.47
2023-05-10T03:54:18.175Z,4.47
2023-05-10T03:57:21.471Z,4.40
2023-05-10T04:00:25.105Z,3.75
2023-05-10T04:03:31.092Z,4.18
2023-05-10T04:06:34.905Z,4.80
2023-05-10T04:09:38.148Z,4.38
2023-05-10T04:12:41.455Z,3.58
2023-05-10T04:15:44.958Z,4.55
2023-05-10T04:18:48.194Z,4.20
2023-05-10T04:21:51.143Z,3.30
2023-05-10T04:24:54.217Z,4.00
2023-05-10T04:27:57.217Z,4.55
2023-05-10T04:31:11.528Z,4.30
2023-05-10T04:34:14.482Z,3.83
2023-05-10T04:37:18.190Z,3.97
2023-05-10T04:40:21.632Z,4.13
2023-05-10T04:43:24.710Z,5.00
2023-05-10T04:46:27.916Z,4.85
2023-05-10T04:49:31.419Z,4.28
2023-05-10T04:52:34.810Z,3.33
2023-05-10T04:55:38.137Z,3.85
2023-05-10T04:58:41.615Z,4.57
2023-05-10T05:01:45.089Z,4.70
2023-05-10T05:04:48.433Z,4.28
2023-05-10T05:07:51.959Z,4.13
2023-05-10T05:10:57.972Z,4.05
2023-05-10T05:14:00.884Z,4.75
2023-05-10T05:17:03.872Z,4.55
2023-05-10T05:20:07.281Z,4.65
2023-05-10T05:23:10.485Z,4.73
2023-05-10T05:26:13.665Z,5.00
2023-05-10T05:29:16.831Z,5.18
2023-05-10T05:32:19.776Z,4.95
2023-05-10T05:35:22.769Z,4.95
2023-05-10T05:38:25.654Z,4.73
2023-05-10T05:41:28.665Z,5.38
2023-05-10T05:44:32.183Z,4.57
2023-05-10T05:47:35.789Z,5.03
2023-05-10T05:50:39.005Z,5.28
2023-05-10T05:53:42.237Z,4.37
2023-05-10T05:56:45.645Z,5.75
2023-05-10T05:59:48.765Z,4.97
2023-05-10T06:02:51.999Z,4.72
2023-05-10T06:05:55.190Z,4.32
2023-05-10T06:08:58.609Z,5.20
2023-05-10T06:12:01.731Z,5.03
2023-05-10T06:15:06.113Z,5.15
2023-05-10T06:18:09.619Z,3.95
2023-05-10T06:21:13.093Z,4.85
2023-05-10T06:24:16.237Z,4.50
2023-05-10T06:27:19.575Z,4.80
2023-05-10T06:30:24.329Z,5.53
2023-05-10T06:33:30.201Z,4.68
2023-05-10T06:36:33.683Z,5.00
2023-05-10T06:39:36.939Z,4.93
2023-05-10T06:42:40.149Z,4.22
2023-05-10T06:45:49.522Z,4.90
2023-05-10T06:48:53.652Z,4.32
2023-05-10T06:51:57.973Z,4.30
2023-05-10T06:55:21.248Z,4.20
2023-05-10T06:58:24.578Z,3.80
2023-05-10T07:01:27.693Z,4.47
2023-05-10T07:04:30.679Z,3.45
2023-05-10T07:07:33.819Z,4.15
2023-05-10T07:10:37.004Z,3.67
2023-05-10T07:13:42.400Z,4.47
2023-05-10T07:16:45.837Z,4.03
2023-05-10T07:19:49.524Z,3.75
2023-05-10T07:22:52.426Z,3.67
2023-05-10T07:25:55.664Z,3.13
2023-05-10T07:29:00.651Z,3.50
2023-05-10T07:32:04.176Z,3.47
2023-05-10T07:35:08.002Z,3.92
2023-05-10T07:38:12.296Z,3.22
2023-05-10T07:41:15.633Z,3.90
2023-05-10T07:44:21.802Z,3.63
2023-05-10T07:47:24.949Z,3.72
2023-05-10T07:50:28.448Z,3.60
2023-05-10T07:53:31.850Z,3.65
2023-05-10T07:56:35.732Z,3.40
2023-05-10T07:59:38.914Z,3.28
2023-05-10T08:02:42.744Z,3.15
2023-05-10T08:05:46.090Z,3.08
2023-05-10T08:08:51.441Z,3.20
2023-05-10T08:11:54.769Z,3.33
2023-05-10T08:14:58.203Z,3.63
2023-05-10T08:18:02.854Z,3.08
2023-05-10T08:21:06.180Z,3.58
2023-05-10T08:24:09.210Z,3.10
2023-05-10T08:27:12.535Z,3.00
2023-05-10T08:30:15.842Z,3.50
2023-05-10T08:33:20.332Z,2.83
2023-05-10T08:36:25.493Z,2.92
2023-05-10T08:39:30.640Z,2.90
2023-05-10T08:42:38.995Z,2.97
2023-05-10T08:45:48.916Z,3.00
2023-05-10T08:48:53.345Z,2.63
2023-05-10T08:51:57.679Z,2.63
2023-05-10T08:55:00.894Z,2.78
2023-05-10T08:58:05.179Z,2.23
2023-05-10T09:01:09.957Z,2.40
2023-05-10T09:04:13.841Z,2.53
2023-05-10T09:07:17.715Z,1.90
2023-05-10T09:10:21.761Z,2.13
2023-05-10T09:13:26.024Z,3.67
2023-05-10T09:16:29.172Z,2.10
2023-05-10T09:19:32.203Z,1.95
2023-05-10T09:22:36.196Z,2.40
2023-05-10T09:25:40.204Z,2.38
2023-05-10T09:28:57.260Z,1.80
2023-05-10T09:32:01.869Z,2.00
2023-05-10T09:35:12.604Z,2.60
2023-05-10T09:38:15.514Z,1.75
2023-05-10T09:41:26.096Z,1.48
2023-05-10T09:44:29.356Z,1.97
2023-05-10T09:47:37.160Z,1.95
2023-05-10T09:50:40.218Z,1.73
2023-05-10T09:53:43.738Z,1.60
2023-05-10T09:56:46.642Z,1.75
2023-05-10T09:59:50.358Z,1.43
2023-05-10T10:02:58.334Z,1.80
2023-05-10T10:06:02.000Z,2.30
2023-05-10T10:09:07.431Z,1.90
2023-05-10T10:12:10.611Z,2.17
2023-05-10T10:15:16.607Z,1.97
2023-05-10T10:18:24.768Z,1.83
2023-05-10T10:21:29.553Z,2.20
2023-05-10T10:24:33.054Z,1.98
2023-05-10T10:27:54.610Z,2.15
2023-05-10T10:31:03.577Z,1.90
2023-05-10T10:34:09.098Z,1.85
2023-05-10T10:37:12.688Z,1.50
2023-05-10T10:40:26.012Z,2.13
2023-05-10T10:43:30.533Z,1.98
2023-05-10T10:46:35.594Z,1.73
2023-05-10T10:49:44.791Z,1.98
2023-05-10T10:52:50.609Z,1.67
2023-05-10T10:56:07.591Z,1.98
2023-05-10T10:59:13.332Z,1.80
2023-05-10T11:02:46.945Z,1.50
2023-05-10T11:05:52.379Z,1.88
2023-05-10T11:08:56.160Z,2.10
2023-05-10T11:12:01.430Z,1.85
2023-05-10T11:15:05.113Z,2.22
2023-05-10T11:18:22.593Z,1.80
2023-05-10T11:21:25.909Z,1.48
2023-05-10T11:24:29.593Z,2.38
2023-05-10T11:27:34.353Z,2.13
2023-05-10T11:30:40.641Z,1.85
2023-05-10T11:33:48.359Z,1.40
2023-05-10T11:36:56.458Z,1.50
2023-05-10T11:39:59.748Z,1.60
2023-05-10T11:43:03.820Z,1.60
2023-05-10T11:46:13.231Z,1.40
2023-05-10T11:49:16.824Z,1.53
2023-05-10T11:52:20.318Z,1.80
2023-05-10T11:55:25.425Z,1.50
2023-05-10T11:58:28.770Z,1.35
2023-05-10T12:01:32.693Z,1.80
2023-05-10T12:04:36.598Z,1.23
2023-05-10T12:07:40.056Z,1.40
2023-05-10T12:10:43.802Z,1.42
2023-05-10T12:13:51.150Z,1.25
2023-05-10T12:16:54.433Z,1.38
2023-05-10T12:20:15.276Z,1.10
2023-05-10T12:23:19.040Z,1.50
2023-05-10T12:26:27.617Z,1.17
2023-05-10T12:29:32.159Z,1.38
2023-05-10T12:32:48.138Z,1.23
2023-05-10T12:35:54.750Z,1.67
2023-05-10T12:39:04.438Z,1.40
2023-05-10T12:42:08.526Z,1.42
2023-05-10T12:45:12.880Z,1.30
2023-05-10T12:48:19.107Z,1.08
2023-05-10T12:51:26.509Z,1.40
2023-05-10T12:54:30.361Z,1.08
2023-05-10T12:57:34.329Z,1.30
2023-05-10T13:00:39.092Z,1.35
2023-05-10T13:03:42.250Z,1.80
2023-05-10T13:06:45.524Z,1.20
2023-05-10T13:09:48.910Z,1.00
2023-05-10T13:12:52.952Z,1.20
2023-05-10T13:15:56.345Z,1.58
2023-05-10T13:19:00.131Z,1.48
2023-05-10T13:22:07.213Z,1.00
2023-05-10T13:25:10.865Z,1.20
2023-05-10T13:28:14.398Z,1.25
2023-05-10T13:31:17.982Z,1.25
2023-05-10T13:34:21.971Z,1.48
2023-05-10T13:37:25.315Z,1.37
2023-05-10T13:40:29.217Z,1.40
2023-05-10T13:43:32.465Z,1.30
2023-05-10T13:46:36.042Z,1.45
2023-05-10T13:49:39.600Z,1.67
2023-05-10T13:52:43.233Z,1.50
2023-05-10T13:55:46.572Z,1.25
2023-05-10T13:58:49.873Z,1.63
2023-05-10T14:01:53.025Z,1.20
2023-05-10T14:04:56.141Z,1.30
2023-05-10T14:07:59.162Z,1.57
2023-05-10T14:11:03.781Z,1.40
2023-05-10T14:14:06.723Z,1.40
2023-05-10T14:17:12.527Z,1.40
2023-05-10T14:20:16.260Z,1.75
2023-05-10T14:23:21.367Z,1.50
2023-05-10T14:26:24.473Z,1.50
2023-05-10T14:29:27.514Z,1.80
2023-05-10T14:32:30.515Z,1.30
2023-05-10T14:35:33.975Z,1.73
2023-05-10T14:38:37.207Z,1.30
2023-05-10T14:41:45.518Z,1.45
2023-05-10T14:44:48.618Z,1.90
2023-05-10T14:47:51.937Z,1.40
2023-05-10T14:50:55.401Z,1.92
2023-05-10T14:53:58.244Z,1.30
2023-05-10T14:57:01.734Z,1.60
2023-05-10T15:00:05.341Z,1.58
2023-05-10T15:03:09.135Z,1.50
2023-05-10T15:06:12.925Z,1.73
2023-05-10T15:09:17.391Z,1.40
2023-05-10T15:12:20.757Z,1.60
2023-05-10T15:15:23.990Z,1.48
2023-05-10T15:18:27.400Z,1.38
2023-05-10T15:21:36.306Z,1.67
2023-05-10T15:24:39.698Z,1.60
2023-05-10T15:27:44.746Z,1.50
2023-05-10T15:30:48.059Z,1.55
2023-05-10T15:33:51.231Z,1.33
2023-05-10T15:36:54.366Z,1.40
2023-05-10T15:40:04.304Z,1.33
2023-05-10T15:43:08.920Z,1.40
2023-05-10T15:46:12.298Z,1.50
2023-05-10T15:49:15.846Z,1.52
2023-05-10T15:52:19.401Z,1.77
2023-05-10T15:55:22.497Z,1.60
2023-05-10T15:58:25.817Z,1.30
2023-05-10T16:01:29.593Z,1.95
2023-05-10T16:04:35.932Z,1.48
2023-05-10T16:07:40.448Z,1.95
2023-05-10T16:10:43.711Z,1.93
2023-05-10T16:13:46.952Z,1.83
2023-05-10T16:16:50.220Z,1.38
2023-05-10T16:19:53.389Z,2.10
2023-05-10T16:22:56.982Z,1.60
2023-05-10T16:26:03.472Z,1.63
2023-05-10T16:29:10.666Z,1.83
2023-05-10T16:32:14.113Z,1.58
2023-05-10T16:35:17.420Z,1.40
2023-05-10T16:38:22.019Z,1.75
2023-05-10T16:41:25.247Z,1.60
2023-05-10T16:44:28.946Z,2.00
2023-05-10T16:47:32.174Z,1.88
2023-05-10T16:50:35.309Z,2.00
2023-05-10T16:53:38.868Z,1.70
2023-05-10T16:56:42.475Z,1.47
2023-05-10T16:59:45.686Z,1.60
2023-05-10T17:02:49.351Z,1.52
2023-05-10T17:05:52.385Z,1.77
2023-05-10T17:08:55.714Z,2.13
2023-05-10T17:11:58.777Z,1.87
2023-05-10T17:15:02.335Z,1.75
2023-05-10T17:18:07.225Z,1.65
2023-05-10T17:21:10.821Z,1.50
2023-05-10T17:24:14.463Z,1.50
2023-05-10T17:27:18.107Z,1.60
2023-05-10T17:30:28.311Z,1.77
2023-05-10T17:33:31.408Z,2.08
2023-05-10T17:36:34.780Z,1.90
2023-05-10T17:39:39.920Z,1.70
2023-05-10T17:42:43.266Z,1.37
2023-05-10T17:45:48.329Z,1.70
2023-05-10T17:48:51.378Z,1.92
2023-05-10T17:51:54.440Z,1.60
2023-05-10T17:54:58.076Z,1.45
2023-05-10T17:58:01.091Z,1.60
2023-05-10T18:01:04.960Z,1.50
2023-05-10T18:04:08.688Z,1.58
2023-05-10T18:07:11.887Z,1.80
2023-05-10T18:10:15.159Z,1.85
2023-05-10T18:13:18.275Z,1.77
2023-05-10T18:16:21.513Z,1.63
2023-05-10T18:19:27.771Z,2.22
2023-05-10T18:22:31.102Z,1.98
2023-05-10T18:25:34.594Z,1.90
2023-05-10T18:28:37.818Z,1.80
2023-05-10T18:31:41.469Z,2.13
2023-05-10T18:34:44.831Z,2.03
2023-05-10T18:37:48.936Z,1.92
2023-05-10T18:40:52.531Z,1.95
2023-05-10T18:43:56.246Z,2.17
2023-05-10T18:47:00.707Z,1.63
2023-05-10T18:50:07.753Z,2.30
2023-05-10T18:53:11.347Z,1.88
2023-05-10T18:56:14.360Z,1.85
2023-05-10T18:59:17.392Z,1.80
2023-05-10T19:02:21.044Z,2.00
2023-05-10T19:05:30.044Z,1.67
2023-05-10T19:08:33.196Z,2.20
2023-05-10T19:11:36.458Z,2.05
2023-05-10T19:14:39.559Z,1.67
2023-05-10T19:17:45.705Z,1.92
2023-05-10T19:20:49.643Z,1.80
2023-05-10T19:23:53.772Z,2.15
2023-05-10T19:26:58.437Z,1.88
2023-05-10T19:30:01.756Z,1.87
2023-05-10T19:33:06.541Z,2.13
2023-05-10T19:36:09.954Z,1.90
2023-05-10T19:39:13.415Z,1.75
2023-05-10T19:42:18.212Z,2.28
2023-05-10T19:45:21.910Z,1.67
2023-05-10T19:48:25.581Z,1.98
2023-05-10T19:51:29.115Z,2.03
2023-05-10T19:54:32.833Z,1.95
2023-05-10T19:57:36.366Z,2.22
2023-05-10T20:00:39.947Z,1.67
2023-05-10T20:03:42.905Z,1.90
2023-05-10T20:06:46.615Z,2.10
2023-05-10T20:09:49.953Z,2.10
2023-05-10T20:12:53.286Z,1.83
2023-05-10T20:15:58.383Z,1.83
2023-05-10T20:19:01.929Z,1.98
2023-05-10T20:22:05.583Z,2.10
2023-05-10T20:25:09.546Z,1.90
2023-05-10T20:28:13.464Z,2.25
2023-05-10T20:31:17.661Z,1.43
2023-05-10T20:34:21.141Z,1.67
2023-05-10T20:37:24.474Z,2.28
2023-05-10T20:40:28.318Z,2.03
2023-05-10T20:43:32.070Z,1.85
2023-05-10T20:46:36.119Z,1.80
2023-05-10T20:49:39.354Z,2.10
2023-05-10T20:52:42.893Z,2.10
2023-05-10T20:55:45.988Z,2.03
2023-05-10T20:58:49.003Z,2.28
2023-05-10T21:01:52.356Z,1.90
2023-05-10T21:04:57.740Z,2.00
2023-05-10T21:08:01.107Z,2.15
2023-05-10T21:11:07.526Z,2.00
2023-05-10T21:14:13.827Z,2.15
2023-05-10T21:17:18.149Z,1.90
2023-05-10T21:20:23.729Z,2.08
2023-05-10T21:23:26.974Z,2.03
2023-05-10T21:26:30.779Z,1.73
2023-05-10T21:29:33.844Z,2.50
2023-05-10T21:32:37.120Z,2.00
2023-05-10T21:35:42.981Z,2.00
2023-05-10T21:38:46.979Z,2.00
2023-05-10T21:41:50.133Z,2.40
2023-05-10T21:44:53.944Z,2.20
2023-05-10T21:47:57.163Z,1.50
2023-05-10T21:51:00.942Z,2.60
2023-05-10T21:54:04.015Z,2.78
2023-05-10T21:57:07.261Z,2.67
2023-05-10T22:00:11.127Z,2.40
2023-05-10T22:03:15.727Z,2.60
2023-05-10T22:06:18.860Z,2.95
2023-05-10T22:09:24.500Z,2.13
2023-05-10T22:12:27.987Z,1.92
2023-05-10T22:15:34.120Z,2.83
2023-05-10T22:18:38.864Z,1.97
2023-05-10T22:21:42.181Z,2.05
2023-05-10T22:24:45.887Z,2.25
2023-05-10T22:27:49.253Z,2.30
2023-05-10T22:30:52.420Z,2.15
2023-05-10T22:33:55.854Z,2.00
2023-05-10T22:36:59.842Z,2.28
2023-05-10T22:40:03.930Z,2.17
2023-05-10T22:43:07.123Z,2.25
2023-05-10T22:46:10.766Z,2.20
2023-05-10T22:49:14.088Z,2.27
2023-05-10T22:52:19.639Z,2.42
2023-05-10T22:55:25.594Z,2.30
2023-05-10T22:58:28.673Z,2.40
2023-05-10T23:01:31.741Z,1.95
2023-05-10T23:04:35.178Z,2.20
2023-05-10T23:07:38.210Z,2.10
2023-05-10T23:10:41.230Z,2.40
2023-05-10T23:13:44.816Z,2.05
2023-05-10T23:16:47.798Z,2.10
2023-05-10T23:19:50.753Z,1.97
2023-05-10T23:22:54.101Z,2.35
2023-05-10T23:25:57.365Z,1.95
2023-05-10T23:29:01.805Z,1.88
2023-05-10T23:32:05.103Z,2.22
2023-05-10T23:35:08.999Z,2.10
2023-05-10T23:38:12.372Z,1.90
2023-05-10T23:41:15.314Z,2.95
2023-05-10T23:44:20.361Z,2.38
2023-05-10T23:47:23.318Z,2.63
2023-05-10T23:50:26.434Z,2.30
2023-05-10T23:53:29.438Z,2.63
2023-05-10T23:56:32.449Z,2.70
2023-05-10T23:59:36.154Z,2.10
